createdAt,value
2018-04-07T00:01:12.705Z,38.40
2018-04-07T00:03:41.707Z,38.80
2018-04-07T00:06:09.222Z,38.90
2018-04-07T00:08:36.719Z,39.50
2018-04-07T00:11:04.240Z,39.30
2018-04-07T00:13:31.742Z,41.40
2018-04-07T00:15:59.256Z,40.40
2018-04-07T00:18:26.743Z,40.40
2018-04-07T00:20:54.234Z,40.40
2018-04-07T00:23:21.759Z,39.70
2018-04-07T00:25:49.270Z,39.60
2018-04-07T00:28:16.783Z,41.00
2018-04-07T00:30:45.307Z,41.00
2018-04-07T00:33:12.870Z,40.90
2018-04-07T00:35:40.356Z,41.30
2018-04-07T00:38:08.629Z,40.40
2018-04-07T00:40:36.146Z,40.30
2018-04-07T00:43:03.639Z,40.60
2018-04-07T00:45:31.177Z,40.60
2018-04-07T00:47:58.665Z,42.00
2018-04-07T00:50:26.155Z,41.60
2018-04-07T00:52:57.798Z,41.20
2018-04-07T00:55:25.297Z,41.20
2018-04-07T00:57:52.837Z,42.80
2018-04-07T01:00:21.142Z,42.30
2018-04-07T01:02:48.647Z,42.30
2018-04-07T01:05:16.153Z,40.40
2018-04-07T01:07:44.428Z,41.20
2018-04-07T01:10:12.701Z,41.00
2018-04-07T01:12:40.215Z,41.00
2018-04-07T01:15:07.730Z,40.80
2018-04-07T01:17:36.025Z,40.70
2018-04-07T01:20:04.290Z,40.40
2018-04-07T01:22:32.570Z,39.90
2018-04-07T01:25:00.052Z,39.80
2018-04-07T01:27:27.568Z,39.10
2018-04-07T01:29:55.058Z,40.80
2018-04-07T01:32:22.569Z,40.10
2018-04-07T01:34:50.044Z,37.90
2018-04-07T01:37:18.294Z,39.10
2018-04-07T01:39:45.801Z,39.20
2018-04-07T01:42:13.311Z,39.70
2018-04-07T01:44:41.576Z,40.80
2018-04-07T01:47:09.835Z,40.50
2018-04-07T01:49:37.347Z,40.50
2018-04-07T01:52:04.876Z,40.70
2018-04-07T01:54:32.383Z,40.20
2018-04-07T01:56:59.909Z,40.20
2018-04-07T01:59:28.157Z,42.00
2018-04-07T02:01:55.662Z,41.90
2018-04-07T02:04:23.933Z,42.90
2018-04-07T02:06:52.206Z,42.80
2018-04-07T02:09:19.710Z,42.80
2018-04-07T02:11:47.235Z,40.20
2018-04-07T02:14:15.523Z,41.00
2018-04-07T02:16:43.771Z,42.70
2018-04-07T02:19:11.293Z,42.70
2018-04-07T02:21:38.785Z,41.50
2018-04-07T02:24:06.297Z,42.10
2018-04-07T02:26:34.554Z,40.80
2018-04-07T02:29:02.051Z,40.80
2018-04-07T02:31:29.550Z,42.40
2018-04-07T02:33:57.055Z,41.90
2018-04-07T02:36:25.335Z,41.40
2018-04-07T02:38:53.604Z,43.00
2018-04-07T02:41:21.119Z,42.90
2018-04-07T02:43:48.608Z,42.40
2018-04-07T02:46:16.100Z,42.60
2018-04-07T02:48:44.526Z,45.10
2018-04-07T02:51:12.026Z,43.50
2018-04-07T02:53:39.534Z,43.30
2018-04-07T02:56:07.028Z,43.30
2018-04-07T02:58:34.533Z,43.20
2018-04-07T03:01:02.036Z,41.90
2018-04-07T03:03:29.532Z,45.00
2018-04-07T03:05:57.053Z,43.20
2018-04-07T03:08:24.547Z,42.50
2018-04-07T03:10:52.048Z,40.80
2018-04-07T03:13:19.539Z,40.30
2018-04-07T03:15:47.045Z,41.70
2018-04-07T03:18:14.533Z,41.20
2018-04-07T03:20:42.042Z,41.30
2018-04-07T03:23:09.559Z,42.00
2018-04-07T03:25:37.047Z,43.50
2018-04-07T03:28:05.323Z,44.70
2018-04-07T03:30:33.591Z,45.60
2018-04-07T03:33:01.887Z,44.70
2018-04-07T03:35:30.151Z,45.60
2018-04-07T03:37:57.637Z,45.60
2018-04-07T03:40:25.142Z,45.80
2018-04-07T03:42:52.652Z,45.20
2018-04-07T03:45:20.932Z,45.20
2018-04-07T03:47:49.196Z,46.60
2018-04-07T03:50:16.682Z,46.60
2018-04-07T03:52:44.966Z,48.40
2018-04-07T03:55:13.217Z,47.00
2018-04-07T03:57:40.718Z,47.00
2018-04-07T04:00:08.250Z,47.60
2018-04-07T04:02:35.732Z,47.50
2018-04-07T04:05:03.274Z,46.80
2018-04-07T04:07:30.782Z,47.00
2018-04-07T04:09:58.270Z,46.90
2018-04-07T04:12:25.786Z,47.20
2018-04-07T04:14:54.050Z,47.20
2018-04-07T04:17:22.358Z,46.70
2018-04-07T04:19:49.869Z,46.70
2018-04-07T04:22:18.270Z,46.50
2018-04-07T04:24:45.772Z,47.20
2018-04-07T04:27:13.263Z,46.70
2018-04-07T04:29:40.767Z,47.30
2018-04-07T04:32:09.041Z,47.70
2018-04-07T04:34:36.522Z,47.70
2018-04-07T04:37:04.794Z,47.70
2018-04-07T04:39:33.063Z,48.00
2018-04-07T04:42:00.618Z,47.90
2018-04-07T04:44:28.107Z,47.70
2018-04-07T04:46:56.363Z,47.30
2018-04-07T04:49:23.870Z,47.30
2018-04-07T04:51:52.131Z,45.80
2018-04-07T04:54:20.400Z,46.90
2018-04-07T04:56:48.741Z,47.00
2018-04-07T04:59:17.003Z,46.60
2018-04-07T05:01:44.519Z,46.60
2018-04-07T05:04:12.004Z,48.80
2018-04-07T05:06:40.285Z,43.10
2018-04-07T05:09:08.546Z,44.50
2018-04-07T05:11:36.046Z,44.50
2018-04-07T05:14:03.580Z,45.60
2018-04-07T05:16:31.882Z,45.70
2018-04-07T05:18:59.406Z,45.70
2018-04-07T05:21:26.904Z,45.50
2018-04-07T05:23:54.404Z,46.50
2018-04-07T05:26:21.913Z,46.90
2018-04-07T05:28:50.188Z,46.80
2018-04-07T05:31:18.398Z,46.70
2018-04-07T05:33:45.909Z,47.20
2018-04-07T05:36:13.407Z,48.00
2018-04-07T05:38:41.717Z,48.50
2018-04-07T05:41:09.183Z,48.50
2018-04-07T05:43:36.691Z,48.10
2018-04-07T05:46:04.215Z,46.30
2018-04-07T05:51:53.432Z,47.30
2018-04-07T05:57:19.378Z,48.40
2018-04-07T05:59:47.637Z,49.40
2018-04-07T06:02:15.906Z,50.40
2018-04-07T06:04:43.430Z,50.40
2018-04-07T06:07:10.926Z,51.30
2018-04-07T06:09:38.417Z,51.00
2018-04-07T06:12:06.686Z,51.00
2018-04-07T06:14:34.951Z,48.80
2018-04-07T06:17:02.456Z,48.80
2018-04-07T06:19:29.949Z,47.00
2018-04-07T06:21:57.433Z,46.50
2018-04-07T06:24:24.929Z,47.20
2018-04-07T06:26:52.456Z,43.70
2018-04-07T06:29:19.974Z,44.90
2018-04-07T06:31:47.470Z,47.80
2018-04-07T06:34:14.991Z,47.60
2018-04-07T06:36:42.471Z,47.60
2018-04-07T06:39:09.952Z,49.90
2018-04-07T06:41:37.462Z,47.30
2018-04-07T06:44:05.726Z,49.30
2018-04-07T06:46:33.250Z,49.30
2018-04-07T06:49:00.762Z,47.00
2018-04-07T06:51:28.262Z,44.40
2018-04-07T06:53:55.764Z,42.60
2018-04-07T06:56:23.289Z,42.50
2018-04-07T06:58:50.780Z,44.10
2018-04-07T07:01:18.422Z,45.80
2018-04-07T07:03:45.948Z,43.90
2018-04-07T07:06:14.202Z,44.80
2018-04-07T07:08:41.723Z,44.70
2018-04-07T07:11:09.250Z,43.30
2018-04-07T07:13:36.739Z,42.60
2018-04-07T07:16:04.225Z,42.20
2018-04-07T07:18:31.766Z,39.70
2018-04-07T07:20:59.280Z,40.70
2018-04-07T07:23:26.774Z,44.10
2018-04-07T07:25:55.063Z,35.80
2018-04-07T07:28:23.322Z,39.50
2018-04-07T07:30:50.842Z,39.60
2018-04-07T07:33:18.381Z,41.50
2018-04-07T07:35:45.867Z,40.90
2018-04-07T07:38:13.357Z,37.90
2018-04-07T07:40:40.861Z,39.50
2018-04-07T07:43:09.115Z,29.90
2018-04-07T07:45:36.613Z,29.80
2018-04-07T07:48:04.135Z,37.60
2018-04-07T07:50:31.633Z,37.60
2018-04-07T07:52:59.127Z,29.70
2018-04-07T07:55:26.647Z,30.50
2018-04-07T07:57:54.906Z,31.40
2018-04-07T08:00:22.415Z,31.40
2018-04-07T08:02:49.916Z,32.30
2018-04-07T08:05:17.403Z,30.60
2018-04-07T08:07:45.681Z,32.00
2018-04-07T08:10:13.952Z,30.30
2018-04-07T08:12:41.490Z,29.80
2018-04-07T08:15:09.004Z,29.20
2018-04-07T08:17:37.279Z,37.20
2018-04-07T08:20:05.566Z,38.50
2018-04-07T08:22:33.835Z,36.60
2018-04-07T08:25:01.365Z,36.60
2018-04-07T08:27:28.858Z,37.20
2018-04-07T08:29:57.113Z,39.80
2018-04-07T08:32:24.634Z,39.30
2018-04-07T08:34:52.145Z,38.20
2018-04-07T08:37:19.659Z,35.10
2018-04-07T08:39:47.172Z,37.30
2018-04-07T08:42:14.700Z,37.30
2018-04-07T08:44:42.198Z,37.80
2018-04-07T08:47:09.728Z,39.10
2018-04-07T08:49:37.227Z,35.70
2018-04-07T08:52:04.755Z,37.30
2018-04-07T08:54:32.263Z,35.70
2018-04-07T08:56:59.768Z,38.50
2018-04-07T08:59:27.346Z,37.40
2018-04-07T09:01:54.850Z,36.40
2018-04-07T09:04:22.353Z,37.20
2018-04-07T09:06:49.875Z,38.30
2018-04-07T09:09:17.367Z,40.50
2018-04-07T09:11:45.655Z,39.50
2018-04-07T09:14:13.148Z,39.50
2018-04-07T09:16:40.659Z,39.90
2018-04-07T09:19:08.999Z,40.70
2018-04-07T09:21:36.515Z,40.10
2018-04-07T09:24:04.819Z,37.10
2018-04-07T09:26:32.339Z,37.10
2018-04-07T09:28:59.848Z,36.90
2018-04-07T09:31:27.386Z,35.70
2018-04-07T09:33:55.646Z,36.60
2018-04-07T09:36:23.180Z,36.60
2018-04-07T09:38:50.675Z,37.20
2018-04-07T09:41:18.165Z,38.00
2018-04-07T09:43:45.714Z,41.00
2018-04-07T09:46:14.006Z,38.80
2018-04-07T09:48:41.517Z,38.80
2018-04-07T09:51:09.014Z,39.90
2018-04-07T09:53:37.275Z,40.50
2018-04-07T09:56:04.792Z,40.40
2018-04-07T09:58:32.301Z,41.10
2018-04-07T10:01:00.619Z,41.00
2018-04-07T10:03:29.416Z,39.30
2018-04-07T10:05:56.939Z,39.20
2018-04-07T10:08:24.441Z,39.90
2018-04-07T10:10:52.761Z,41.40
2018-04-07T10:13:20.268Z,41.30
2018-04-07T10:15:48.551Z,44.30
2018-04-07T10:18:16.806Z,41.90
2018-04-07T10:20:44.320Z,41.90
2018-04-07T10:23:11.832Z,42.40
2018-04-07T10:25:39.372Z,41.60
2018-04-07T10:28:06.912Z,41.40
2018-04-07T10:30:34.428Z,41.30
2018-04-07T10:33:01.966Z,41.50
2018-04-07T10:35:29.475Z,44.90
2018-04-07T10:37:57.739Z,41.00
2018-04-07T10:40:25.241Z,41.00
2018-04-07T10:42:52.756Z,41.90
2018-04-07T10:45:20.285Z,40.50
2018-04-07T10:47:47.775Z,40.40
2018-04-07T10:50:15.288Z,39.40
2018-04-07T10:52:42.817Z,42.00
2018-04-07T10:55:10.338Z,39.20
2018-04-07T10:57:37.858Z,40.90
2018-04-07T11:00:06.171Z,40.00
2018-04-07T11:02:33.694Z,39.90
2018-04-07T11:05:01.199Z,39.80
2018-04-07T11:07:28.778Z,42.40
2018-04-07T11:09:56.299Z,40.20
2018-04-07T11:12:24.595Z,39.60
2018-04-07T11:14:52.108Z,39.60
2018-04-07T11:17:19.640Z,41.90
2018-04-07T11:19:47.150Z,41.10
2018-04-07T11:22:14.651Z,40.60
2018-04-07T11:24:42.169Z,42.60
2018-04-07T11:27:09.681Z,43.00
2018-04-07T11:29:37.193Z,39.00
2018-04-07T11:32:04.714Z,38.40
2018-04-07T11:34:32.211Z,38.50
2018-04-07T11:36:59.739Z,37.90
2018-04-07T11:39:27.245Z,38.00
2018-04-07T11:41:54.763Z,39.50
2018-04-07T11:44:22.264Z,39.50
2018-04-07T11:46:49.786Z,34.60
2018-04-07T11:49:18.992Z,34.40
2018-04-07T11:51:46.494Z,35.00
2018-04-07T11:54:14.016Z,38.90
2018-04-07T11:56:41.512Z,36.60
2018-04-07T11:59:09.030Z,35.80
2018-04-07T12:01:37.308Z,36.40
2018-04-07T12:04:04.840Z,36.40
2018-04-07T12:06:32.332Z,35.50
2018-04-07T12:09:00.596Z,38.70
2018-04-07T12:11:28.128Z,38.80
2018-04-07T12:13:55.614Z,35.40
2018-04-07T12:16:23.158Z,35.90
2018-04-07T12:18:50.737Z,36.80
2018-04-07T12:21:18.953Z,38.40
2018-04-07T12:23:46.456Z,37.80
2018-04-07T12:26:13.967Z,38.60
2018-04-07T12:28:42.274Z,37.70
2018-04-07T12:31:09.818Z,37.70
2018-04-07T12:33:38.260Z,38.70
2018-04-07T12:36:05.787Z,38.50
2018-04-07T12:38:33.302Z,37.70
2018-04-07T12:41:00.828Z,34.20
2018-04-07T12:43:28.343Z,34.20
2018-04-07T12:45:56.624Z,33.50
2018-04-07T12:48:24.890Z,32.50
2018-04-07T12:50:52.391Z,32.50
2018-04-07T12:53:20.695Z,32.00
2018-04-07T12:55:48.200Z,32.10
2018-04-07T12:58:15.711Z,31.10
2018-04-07T13:00:43.218Z,35.10
2018-04-07T13:03:10.736Z,32.30
2018-04-07T13:05:38.260Z,31.40
2018-04-07T13:08:06.524Z,33.80
2018-04-07T13:10:34.014Z,33.80
2018-04-07T13:13:02.319Z,33.90
2018-04-07T13:15:29.807Z,34.00
2018-04-07T13:17:57.406Z,31.00
2018-04-07T13:20:25.700Z,36.70
2018-04-07T13:22:53.989Z,31.00
2018-04-07T13:25:22.317Z,28.30
2018-04-07T13:27:49.818Z,28.30
2018-04-07T13:30:17.344Z,28.40
2018-04-07T13:32:44.871Z,29.30
2018-04-07T13:35:12.374Z,29.10
2018-04-07T13:37:39.900Z,31.30
2018-04-07T13:40:07.409Z,29.90
2018-04-07T13:42:34.935Z,30.10
2018-04-07T13:45:02.447Z,30.30
2018-04-07T13:47:29.968Z,30.40
2018-04-07T13:49:57.474Z,30.30
2018-04-07T13:52:25.003Z,29.50
2018-04-07T13:54:52.515Z,30.00
2018-04-07T13:57:20.812Z,29.90
2018-04-07T13:59:49.080Z,29.60
2018-04-07T14:02:16.586Z,29.60
2018-04-07T14:04:44.085Z,30.50
2018-04-07T14:07:11.624Z,32.00
2018-04-07T14:09:39.122Z,33.00
2018-04-07T14:12:06.674Z,33.40
2018-04-07T14:14:34.207Z,30.50
2018-04-07T14:17:01.722Z,29.10
2018-04-07T14:19:29.264Z,33.80
2018-04-07T14:21:56.749Z,28.20
2018-04-07T14:24:25.030Z,28.40
2018-04-07T14:26:53.327Z,27.40
2018-04-07T14:29:21.583Z,27.00
2018-04-07T14:31:49.117Z,26.90
2018-04-07T14:34:16.684Z,28.70
2018-04-07T14:36:44.334Z,27.50
2018-04-07T14:39:11.894Z,26.60
2018-04-07T14:41:39.450Z,27.70
2018-04-07T14:44:07.000Z,28.40
2018-04-07T14:46:34.516Z,28.30
2018-04-07T14:49:02.071Z,26.20
2018-04-07T14:51:29.602Z,24.90
2018-04-07T14:53:57.213Z,26.60
2018-04-07T14:56:24.818Z,25.70
2018-04-07T14:58:53.088Z,25.10
2018-04-07T15:01:20.673Z,25.10
2018-04-07T15:03:48.198Z,24.80
2018-04-07T15:06:15.721Z,23.20
2018-04-07T15:08:43.280Z,24.10
2018-04-07T15:11:10.806Z,25.00
2018-04-07T15:13:38.345Z,24.10
2018-04-07T15:16:05.851Z,24.90
2018-04-07T15:18:33.341Z,23.20
2018-04-07T15:21:00.874Z,23.10
2018-04-07T15:23:28.375Z,23.60
2018-04-07T15:25:55.880Z,23.30
2018-04-07T15:28:24.171Z,25.40
2018-04-07T15:30:52.433Z,23.90
2018-04-07T15:33:19.947Z,23.90
2018-04-07T15:35:47.438Z,24.10
2018-04-07T15:38:14.954Z,24.00
2018-04-07T15:40:42.477Z,24.80
2018-04-07T15:43:09.969Z,25.60
2018-04-07T15:45:38.251Z,27.60
2018-04-07T15:48:05.760Z,27.60
2018-04-07T15:50:33.296Z,28.40
2018-04-07T15:53:01.557Z,29.30
2018-04-07T15:55:29.064Z,29.20
2018-04-07T15:57:56.582Z,29.80
2018-04-07T16:00:24.836Z,30.90
2018-04-07T16:02:52.349Z,30.80
2018-04-07T16:05:19.867Z,30.10
2018-04-07T16:07:47.386Z,29.30
2018-04-07T16:10:14.945Z,29.60
2018-04-07T16:12:42.462Z,30.40
2018-04-07T16:15:10.726Z,29.80
2018-04-07T16:17:38.245Z,29.80
2018-04-07T16:20:05.746Z,30.70
2018-04-07T16:22:33.298Z,29.90
2018-04-07T16:25:00.792Z,30.80
2018-04-07T16:27:28.287Z,30.00
2018-04-07T16:29:55.832Z,31.30
2018-04-07T16:32:24.118Z,31.30
2018-04-07T16:34:52.435Z,31.60
2018-04-07T16:37:19.971Z,31.60
2018-04-07T16:39:47.474Z,32.10
2018-04-07T16:42:15.033Z,32.00
2018-04-07T16:44:42.542Z,32.30
2018-04-07T16:47:10.842Z,34.30
2018-04-07T16:49:38.355Z,34.30
2018-04-07T16:52:05.852Z,33.10
2018-04-07T16:54:34.167Z,34.00
2018-04-07T16:57:01.675Z,34.00
2018-04-07T16:59:29.219Z,33.20
2018-04-07T17:01:56.740Z,32.90
2018-04-07T17:04:24.255Z,32.90
2018-04-07T17:06:51.770Z,33.10
2018-04-07T17:09:19.259Z,33.20
2018-04-07T17:11:46.785Z,34.90
2018-04-07T17:14:14.278Z,33.70
2018-04-07T17:16:41.772Z,33.40
2018-04-07T17:19:09.285Z,35.00
2018-04-07T17:21:36.773Z,34.40
2018-04-07T17:24:04.334Z,36.20
2018-04-07T17:26:31.844Z,34.70
2018-04-07T17:29:00.120Z,33.90
2018-04-07T17:31:27.661Z,33.90
2018-04-07T17:33:55.178Z,35.20
2018-04-07T17:36:22.694Z,35.40
2018-04-07T17:38:50.192Z,38.30
2018-04-07T17:41:18.459Z,35.90
2018-04-07T17:43:45.982Z,35.80
2018-04-07T17:46:13.492Z,35.80
2018-04-07T17:48:40.998Z,36.40
2018-04-07T17:51:08.518Z,36.30
2018-04-07T17:53:36.778Z,38.40
2018-04-07T17:56:04.313Z,38.40
2018-04-07T17:58:31.810Z,39.40
2018-04-07T18:00:59.330Z,38.60
2018-04-07T18:03:26.829Z,38.90
2018-04-07T18:05:54.334Z,40.20
2018-04-07T18:08:21.846Z,41.40
2018-04-07T18:10:49.344Z,39.70
2018-04-07T18:13:18.566Z,38.90
2018-04-07T18:15:46.065Z,38.90
2018-04-07T18:18:13.587Z,37.40
2018-04-07T18:20:41.110Z,37.60
2018-04-07T18:23:08.613Z,39.00
2018-04-07T18:25:36.127Z,42.20
2018-04-07T18:28:03.647Z,41.60
2018-04-07T18:30:31.179Z,42.70
2018-04-07T18:32:59.453Z,43.90
2018-04-07T18:35:26.952Z,43.90
2018-04-07T18:37:54.478Z,44.30
2018-04-07T18:40:21.958Z,43.60
2018-04-07T18:42:50.234Z,44.70
2018-04-07T18:45:18.513Z,45.40
2018-04-07T18:47:46.777Z,44.80
2018-04-07T18:50:14.307Z,44.80
2018-04-07T18:52:41.800Z,46.00
2018-04-07T18:55:09.318Z,44.20
2018-04-07T18:57:36.805Z,42.60
2018-04-07T19:00:04.332Z,41.90
2018-04-07T19:02:31.838Z,43.00
2018-04-07T19:04:59.330Z,44.10
2018-04-07T19:07:26.859Z,45.20
2018-04-07T19:09:54.391Z,45.50
2018-04-07T19:12:21.902Z,45.70
2018-04-07T19:14:49.436Z,46.30
2018-04-07T19:17:16.932Z,46.10
2018-04-07T19:19:44.444Z,46.30
2018-04-07T19:22:11.947Z,46.30
2018-04-07T19:24:39.465Z,46.40
2018-04-07T19:27:06.974Z,45.10
2018-04-07T19:29:34.484Z,45.80
2018-04-07T19:32:02.035Z,45.20
2018-04-07T19:34:29.526Z,45.00
2018-04-07T19:36:57.027Z,46.00
2018-04-07T19:39:24.548Z,47.00
2018-04-07T19:41:52.053Z,48.40
2018-04-07T19:44:19.575Z,47.20
2018-04-07T19:46:47.078Z,46.10
2018-04-07T19:49:14.622Z,45.70
2018-04-07T19:51:42.988Z,46.10
2018-04-07T19:54:10.507Z,46.10
2018-04-07T19:56:38.817Z,47.50
2018-04-07T19:59:06.324Z,47.50
2018-04-07T20:01:33.831Z,47.60
2018-04-07T20:04:02.103Z,48.90
2018-04-07T20:06:30.363Z,47.00
2018-04-07T20:08:57.885Z,47.00
2018-04-07T20:11:25.374Z,43.90
2018-04-07T20:13:52.883Z,44.30
2018-04-07T20:16:20.419Z,46.40
2018-04-07T20:18:47.917Z,46.30
2018-04-07T20:21:15.425Z,46.70
2018-04-07T20:23:42.922Z,47.50
2018-04-07T20:26:11.196Z,47.30
2018-04-07T20:28:38.739Z,47.20
2018-04-07T20:31:06.242Z,47.70
2018-04-07T20:33:34.519Z,49.80
2018-04-07T20:36:02.786Z,49.40
2018-04-07T20:38:30.299Z,49.40
2018-04-07T20:40:57.815Z,49.30
2018-04-07T20:43:25.309Z,49.00
2018-04-07T20:45:52.921Z,49.30
2018-04-07T20:48:21.336Z,49.10
2018-04-07T20:50:49.650Z,48.40
2018-04-07T20:53:17.176Z,48.20
2018-04-07T20:55:45.448Z,49.00
2018-04-07T20:58:12.978Z,49.00
2018-04-07T21:00:40.477Z,49.20
2018-04-07T21:03:07.981Z,49.30
2018-04-07T21:05:35.505Z,48.90
2018-04-07T21:08:03.004Z,50.50
2018-04-07T21:10:30.510Z,50.30
2018-04-07T21:12:58.023Z,50.20
2018-04-07T21:15:25.513Z,50.50
2018-04-07T21:17:53.029Z,50.40
2018-04-07T21:20:21.298Z,50.90
2018-04-07T21:22:49.031Z,50.90
2018-04-07T21:25:16.698Z,50.30
2018-04-07T21:27:44.381Z,50.10
2018-04-07T21:30:12.954Z,50.20
2018-04-07T21:32:40.686Z,49.30
2018-04-07T21:35:08.179Z,48.60
2018-04-07T21:37:35.698Z,45.50
2018-04-07T21:40:03.993Z,44.90
2018-04-07T21:42:31.505Z,45.40
2018-04-07T21:44:59.000Z,45.00
2018-04-07T21:47:27.260Z,47.10
2018-04-07T21:49:54.775Z,47.10
2018-04-07T21:52:22.285Z,47.20
2018-04-07T21:54:49.793Z,47.10
2018-04-07T21:57:17.295Z,47.40
2018-04-07T21:59:44.794Z,47.60
2018-04-07T22:02:13.088Z,48.20
2018-04-07T22:04:41.381Z,48.10
2018-04-07T22:07:08.900Z,48.10
2018-04-07T22:09:36.409Z,49.70
2018-04-07T22:12:03.980Z,49.20
2018-04-07T22:14:31.470Z,46.80
2018-04-07T22:16:58.994Z,48.70
2018-04-07T22:19:26.522Z,47.20
2018-04-07T22:21:54.039Z,47.60
2018-04-07T22:24:21.555Z,46.90
2018-04-07T22:26:49.054Z,47.00
2018-04-07T22:29:16.550Z,47.10
2018-04-07T22:31:44.103Z,48.30
2018-04-07T22:34:11.588Z,48.00
2018-04-07T22:36:39.091Z,48.30
2018-04-07T22:39:06.621Z,48.50
2018-04-07T22:41:34.129Z,48.10
2018-04-07T22:44:01.640Z,45.80
2018-04-07T22:46:29.187Z,46.40
2018-04-07T22:48:57.475Z,46.70
2018-04-07T22:51:24.959Z,46.60
2018-04-07T22:53:52.449Z,46.70
2018-04-07T22:56:20.723Z,47.00
2018-04-07T22:58:48.982Z,47.10
2018-04-07T23:01:16.502Z,47.10
2018-04-07T23:03:43.999Z,48.20
2018-04-07T23:06:11.509Z,47.70
2018-04-07T23:08:39.025Z,48.00
2018-04-07T23:11:06.516Z,48.20
2018-04-07T23:13:34.808Z,48.20
2018-04-07T23:16:02.302Z,48.20
2018-04-07T23:18:29.813Z,48.00
2018-04-07T23:20:58.136Z,47.70
2018-04-07T23:23:25.623Z,47.70
2018-04-07T23:25:53.159Z,48.10
2018-04-07T23:28:20.648Z,47.80
2018-04-07T23:30:48.146Z,48.30
2018-04-07T23:33:16.431Z,45.80
2018-04-07T23:35:44.707Z,44.40
2018-04-07T23:38:12.993Z,42.50
2018-04-07T23:40:41.242Z,44.00
2018-04-07T23:43:08.747Z,44.00
2018-04-07T23:45:37.012Z,43.70
2018-04-07T23:48:05.281Z,43.90
2018-04-07T23:50:32.785Z,43.90
2018-04-07T23:53:00.286Z,43.50
2018-04-07T23:55:27.782Z,42.90
2018-04-07T23:57:56.066Z,43.10
